Time;durP1;ratioP1;P1;durP2;ratioP2;P2;SDS_P1;SDS_P2;PMS_P1;PMS_P2;Temp;Humidity;BMP_temperature;BMP_pressure;BME280_temperature;BME280_humidity;BME280_pressure;Samples;Min_cycle;Max_cycle;Signal;HPM_P1;HPM_P2
2022/09/01 00:01:38;;;;;;;6.13;5.43;;;;;;;17.05;78.45;101284.44;4982274;28;20051;-79
2022/09/01 00:04:07;;;;;;;7.18;5.72;;;;;;;17.03;78.04;101287.25;4981404;28;20074;-79
2022/09/01 00:06:39;;;;;;;8.90;5.55;;;;;;;17.04;78.69;101282.78;4981344;28;20047;-79
2022/09/01 00:09:08;;;;;;;6.90;5.85;;;;;;;17.00;78.02;101292.09;4980659;28;20054;-79
2022/09/01 00:11:36;;;;;;;6.93;5.32;;;;;;;16.96;78.67;101288.19;4983174;28;20429;-78
2022/09/01 00:14:05;;;;;;;8.05;5.53;;;;;;;16.92;79.07;101277.16;4980161;28;20111;-78
2022/09/01 00:16:32;;;;;;;7.65;5.65;;;;;;;16.88;79.38;101281.16;4973271;28;20050;-78
2022/09/01 00:18:58;;;;;;;7.97;5.68;;;;;;;16.85;79.79;101278.88;4979942;28;20081;-78
2022/09/01 00:21:29;;;;;;;9.20;6.20;;;;;;;16.84;79.58;101279.88;4979449;28;20082;-79
2022/09/01 00:23:59;;;;;;;10.13;5.85;;;;;;;16.81;79.24;101281.06;4962681;28;20207;-79
2022/09/01 00:26:25;;;;;;;7.70;6.22;;;;;;;16.79;79.30;101283.06;4961834;28;20090;-79
2022/09/01 00:28:52;;;;;;;8.00;6.00;;;;;;;16.77;79.58;101285.06;4969470;28;20150;-79
2022/09/01 00:31:20;;;;;;;10.00;5.78;;;;;;;16.78;79.76;101286.69;4981126;28;20105;-79
2022/09/01 00:33:47;;;;;;;7.45;5.78;;;;;;;16.70;79.98;101278.84;4980330;28;20047;-78
2022/09/01 00:36:15;;;;;;;8.30;5.85;;;;;;;16.74;79.73;101279.31;4980360;28;20442;-79
2022/09/01 00:38:41;;;;;;;9.10;5.75;;;;;;;16.78;79.87;101297.28;4979834;28;20051;-79
2022/09/01 00:41:10;;;;;;;7.15;5.47;;;;;;;16.75;80.23;101288.88;4979008;28;20146;-79
2022/09/01 00:43:39;;;;;;;7.47;6.25;;;;;;;16.69;81.11;101285.13;4979975;28;20055;-78
2022/09/01 00:46:09;;;;;;;7.03;5.75;;;;;;;16.65;79.97;101278.56;4975098;28;20078;-77
2022/09/01 00:48:36;;;;;;;8.40;5.72;;;;;;;16.66;80.23;101276.75;4975038;28;20076;-79
2022/09/01 00:51:04;;;;;;;8.60;5.90;;;;;;;16.63;80.32;101277.88;4975362;28;20093;-78
2022/09/01 00:53:32;;;;;;;8.75;5.78;;;;;;;16.64;79.59;101268.13;4974536;28;20083;-78
2022/09/01 00:55:59;;;;;;;7.72;5.88;;;;;;;16.65;80.34;101262.72;4974316;28;20082;-78
2022/09/01 00:58:27;;;;;;;6.85;5.65;;;;;;;16.54;80.80;101273.72;4973940;28;20058;-78
2022/09/01 01:00:54;;;;;;;8.10;5.95;;;;;;;16.47;81.73;101264.84;4974087;28;20129;-78
2022/09/01 01:03:22;;;;;;;6.63;5.75;;;;;;;16.42;81.54;101275.13;4981322;28;20051;-78
2022/09/01 01:05:53;;;;;;;7.35;6.30;;;;;;;16.37;82.51;101282.75;4978793;28;20061;-78
2022/09/01 01:08:32;;;;;;;9.60;6.30;;;;;;;16.30;82.84;101273.91;4978103;28;20046;-78
2022/09/01 01:11:01;;;;;;;9.55;6.25;;;;;;;16.34;82.35;101281.31;4979165;28;20066;-78
2022/09/01 01:13:35;;;;;;;8.05;6.38;;;;;;;16.32;82.49;101277.19;4978546;28;20051;-78
2022/09/01 01:16:02;;;;;;;8.18;6.22;;;;;;;16.29;82.81;101282.81;4977635;28;20489;-78
2022/09/01 01:18:29;;;;;;;7.22;5.93;;;;;;;16.29;81.20;101269.63;4977773;28;20066;-78
2022/09/01 01:23:55;;;;;;;7.47;6.65;;;;;;;16.25;81.72;101275.25;4979304;28;20162;-78
2022/09/01 01:26:23;;;;;;;6.85;6.15;;;;;;;16.17;83.09;101272.69;4978960;28;20058;-78
2022/09/01 01:28:53;;;;;;;8.20;5.93;;;;;;;16.08;83.24;101279.00;4974885;28;20638;-78
2022/09/01 01:31:21;;;;;;;6.70;5.85;;;;;;;16.01;83.15;101277.28;4973189;28;20105;-78
2022/09/01 01:33:51;;;;;;;10.57;6.10;;;;;;;15.93;83.27;101265.78;4973551;28;20051;-77
2022/09/01 01:36:25;;;;;;;9.30;6.30;;;;;;;15.90;83.92;101260.03;4975464;28;20071;-78
2022/09/01 01:38:54;;;;;;;6.70;5.97;;;;;;;15.96;84.00;101264.59;4977746;28;20054;-80
2022/09/01 01:41:23;;;;;;;7.47;6.65;;;;;;;16.01;84.09;101261.44;4979646;28;20101;-79
2022/09/01 01:43:51;;;;;;;10.25;7.10;;;;;;;15.93;84.59;101264.94;4980290;28;20498;-80
2022/09/01 01:46:18;;;;;;;8.13;6.45;;;;;;;15.85;84.42;101259.72;4977922;28;20051;-79
2022/09/01 01:48:46;;;;;;;8.50;6.80;;;;;;;15.87;84.69;101255.91;4977475;28;20078;-80
2022/09/01 01:51:12;;;;;;;8.07;6.75;;;;;;;15.81;85.01;101261.88;4976485;28;20138;-80
2022/09/01 01:53:40;;;;;;;8.27;6.50;;;;;;;15.83;85.30;101256.44;4975979;28;20090;-79
2022/09/01 01:56:08;;;;;;;7.75;6.65;;;;;;;15.82;84.98;101271.44;4975894;28;20057;-79
2022/09/01 01:58:35;;;;;;;7.78;6.07;;;;;;;15.76;85.69;101264.22;4976439;28;20643;-79
2022/09/01 02:01:05;;;;;;;8.23;6.50;;;;;;;15.71;84.71;101263.91;4973966;28;20057;-78
2022/09/01 02:03:37;;;;;;;7.60;6.00;;;;;;;15.75;83.96;101272.31;4973458;28;20062;-78
2022/09/01 02:06:06;;;;;;;6.80;5.95;;;;;;;15.79;84.29;101270.97;4973234;28;20406;-78
2022/09/01 02:08:34;;;;;;;7.72;6.22;;;;;;;15.79;84.44;101260.41;4972336;28;20076;-78
2022/09/01 02:11:02;;;;;;;6.82;5.55;;;;;;;15.83;82.96;101269.63;4973023;28;20058;-78
2022/09/01 02:13:29;;;;;;;6.85;5.93;;;;;;;15.84;82.63;101272.09;4973153;28;20147;-78
2022/09/01 02:16:01;;;;;;;7.13;5.65;;;;;;;15.83;82.46;101275.72;4973136;28;20059;-79
2022/09/01 02:18:34;;;;;;;7.78;6.22;;;;;;;15.80;83.39;101270.81;4973596;28;20446;-78
2022/09/01 02:21:02;;;;;;;11.75;5.97;;;;;;;15.80;83.90;101270.81;5000389;23;20511;-79
2022/09/01 02:23:29;;;;;;;8.50;5.90;;;;;;;15.78;83.19;101264.88;5019335;28;20110;-78
2022/09/01 02:26:01;;;;;;;6.80;5.80;;;;;;;15.81;83.42;101275.09;5011802;28;20057;-77
2022/09/01 02:28:30;;;;;;;7.80;5.20;;;;;;;15.84;82.64;101271.28;5011403;28;20057;-79
2022/09/01 02:30:58;;;;;;;8.93;6.03;;;;;;;15.82;82.22;101279.38;5011430;28;20057;-78
2022/09/01 02:33:27;;;;;;;7.28;5.45;;;;;;;15.84;82.32;101281.81;5011294;28;20078;-77
2022/09/01 02:36:00;;;;;;;7.93;5.60;;;;;;;15.89;81.28;101268.94;5010890;28;20100;-78
2022/09/01 02:38:28;;;;;;;8.25;5.70;;;;;;;15.91;81.82;101280.97;5011087;28;20137;-77
2022/09/01 02:40:57;;;;;;;7.78;5.70;;;;;;;15.89;82.27;101275.03;5011081;28;20104;-79
2022/09/01 02:43:27;;;;;;;8.75;5.60;;;;;;;15.84;83.97;101266.81;5011342;28;20057;-78
2022/09/01 02:45:56;;;;;;;9.18;6.00;;;;;;;15.76;85.32;101260.75;5011105;28;20428;-79
2022/09/01 02:48:31;;;;;;;7.70;6.03;;;;;;;15.67;86.14;101254.72;5011238;28;20054;-80
2022/09/01 02:51:01;;;;;;;6.88;5.68;;;;;;;15.55;87.51;101246.34;5011359;28;20058;-78
2022/09/01 02:53:27;;;;;;;7.13;6.25;;;;;;;15.44;87.86;101238.00;5011089;28;20049;-79
2022/09/01 02:55:58;;;;;;;7.22;6.20;;;;;;;15.34;88.32;101254.03;5011033;28;20128;-77
2022/09/01 02:58:25;;;;;;;8.93;6.45;;;;;;;15.23;88.23;101246.50;5010800;28;20141;-77
2022/09/01 03:00:53;;;;;;;7.15;6.40;;;;;;;15.21;88.67;101245.84;5011380;28;20077;-78
2022/09/01 03:03:20;;;;;;;10.52;6.50;;;;;;;15.21;88.30;101248.47;5011339;28;20069;-79
2022/09/01 03:05:50;;;;;;;7.65;6.50;;;;;;;15.25;88.62;101244.53;5013425;28;20141;-79
2022/09/01 03:08:18;;;;;;;8.18;6.78;;;;;;;15.30;88.87;101241.38;5014366;28;20046;-78
2022/09/01 03:10:46;;;;;;;9.10;6.93;;;;;;;15.30;88.70;101250.09;5014707;28;20567;-79
2022/09/01 03:13:15;;;;;;;8.75;6.78;;;;;;;15.27;88.52;101248.63;5015349;28;20139;-78
2022/09/01 03:15:42;;;;;;;7.85;7.05;;;;;;;15.17;88.19;101247.19;5014490;28;20103;-78
2022/09/01 03:18:10;;;;;;;9.38;7.03;;;;;;;15.21;88.50;101248.47;5014479;28;20575;-79
2022/09/01 03:20:42;;;;;;;9.35;7.18;;;;;;;15.19;88.07;101250.47;5014663;28;20153;-77
2022/09/01 03:23:13;;;;;;;9.82;7.30;;;;;;;15.21;88.20;101249.31;5014804;28;20112;-81
2022/09/01 03:25:43;;;;;;;9.70;7.20;;;;;;;15.23;88.46;101249.13;4994742;28;20051;-79
2022/09/01 03:28:11;;;;;;;7.72;6.93;;;;;;;15.22;88.27;101255.41;5009726;28;20065;-78
2022/09/01 03:30:43;;;;;;;8.00;7.20;;;;;;;15.23;88.29;101255.22;5014232;28;20149;-77
2022/09/01 03:33:10;;;;;;;7.88;7.03;;;;;;;15.22;88.42;101250.13;5014216;28;20045;-77
2022/09/01 03:35:37;;;;;;;9.18;7.10;;;;;;;15.19;88.35;101256.56;5014296;28;20129;-78
2022/09/01 03:38:04;;;;;;;9.32;7.40;;;;;;;15.13;88.66;101251.16;5014378;28;20141;-79
2022/09/01 03:40:34;;;;;;;9.55;7.15;;;;;;;15.11;88.90;101247.88;5014013;28;20088;-78
2022/09/01 03:43:05;;;;;;;9.52;7.32;;;;;;;15.11;88.68;101243.44;5014322;28;20076;-77
2022/09/01 03:45:33;;;;;;;8.07;7.18;;;;;;;15.10;88.72;101240.97;5014384;28;20128;-79
2022/09/01 03:48:07;;;;;;;10.30;7.47;;;;;;;15.05;89.29;101245.94;5014313;28;20385;-77
2022/09/01 03:50:39;;;;;;;8.77;7.05;;;;;;;15.03;89.63;101247.91;5014285;28;20057;-77
2022/09/01 03:53:07;;;;;;;7.70;6.93;;;;;;;14.95;89.69;101259.31;5014060;28;20124;-79
2022/09/01 03:55:36;;;;;;;8.23;7.10;;;;;;;14.97;89.70;101253.84;5013935;28;20050;-78
2022/09/01 03:58:07;;;;;;;12.25;7.40;;;;;;;14.89;89.87;101255.53;5013644;28;20049;-78
2022/09/01 04:00:36;;;;;;;8.00;6.95;;;;;;;14.86;90.18;101247.94;5014366;28;20104;-78
2022/09/01 04:03:06;;;;;;;9.32;7.47;;;;;;;14.79;90.42;101249.63;5013704;28;20133;-79
2022/09/01 04:05:36;;;;;;;15.63;7.10;;;;;;;14.74;91.32;101243.19;5014469;28;20133;-78
2022/09/01 04:08:05;;;;;;;8.95;7.10;;;;;;;14.64;92.13;101251.31;5014313;28;20503;-78
2022/09/01 04:10:34;;;;;;;11.02;7.20;;;;;;;14.54;92.74;101251.50;5014348;28;20118;-78
2022/09/01 04:13:01;;;;;;;8.10;6.90;;;;;;;14.44;92.87;101239.47;5014530;28;20046;-77
2022/09/01 04:15:31;;;;;;;8.38;6.95;;;;;;;14.39;93.17;101241.75;5014455;28;20054;-78
2022/09/01 04:18:08;;;;;;;8.70;7.30;;;;;;;14.38;92.77;101243.56;5013950;28;20050;-77
2022/09/01 04:20:47;;;;;;;9.68;7.40;;;;;;;14.31;93.16;101250.47;5014418;28;20405;-77
2022/09/01 04:23:24;;;;;;;10.05;6.90;;;;;;;14.25;93.42;101246.69;5014017;28;20050;-78
2022/09/01 04:25:53;;;;;;;8.85;7.20;;;;;;;14.25;93.52;101251.13;5014572;28;20056;-77
2022/09/01 04:28:23;;;;;;;8.02;7.22;;;;;;;14.21;93.60;101255.91;5013097;28;20084;-78
2022/09/01 04:30:54;;;;;;;7.75;6.95;;;;;;;14.18;93.99;101258.84;5013016;28;20627;-78
2022/09/01 04:33:22;;;;;;;10.05;7.60;;;;;;;14.13;94.20;101255.91;5012975;28;20077;-78
2022/09/01 04:35:55;;;;;;;11.38;8.45;;;;;;;14.13;94.26;101258.56;5013492;28;20451;-78
2022/09/01 04:38:23;;;;;;;10.57;8.13;;;;;;;14.07;94.26;101243.41;5013286;28;20132;-79
2022/09/01 04:40:51;;;;;;;10.25;7.63;;;;;;;14.10;94.38;101258.06;5013590;28;20124;-78
2022/09/01 04:43:19;;;;;;;10.50;8.57;;;;;;;14.12;93.91;101256.09;5013679;28;20053;-79
2022/09/01 04:45:50;;;;;;;14.05;8.82;;;;;;;14.11;94.49;101255.25;5013610;28;20141;-78
2022/09/01 04:48:21;;;;;;;9.27;8.30;;;;;;;14.16;94.48;101262.66;5013337;28;20053;-79
2022/09/01 04:50:48;;;;;;;10.93;8.10;;;;;;;14.19;93.81;101260.50;5013731;28;20053;-78
2022/09/01 04:53:17;;;;;;;9.43;8.40;;;;;;;14.20;93.89;101256.88;5015982;28;20077;-80
2022/09/01 04:55:45;;;;;;;18.40;8.75;;;;;;;14.22;93.66;101264.63;5017392;28;20559;-76
2022/09/01 04:58:16;;;;;;;10.80;9.60;;;;;;;14.24;93.72;101254.75;5015609;28;20077;-78
2022/09/01 05:00:46;;;;;;;9.68;8.38;;;;;;;14.24;93.81;101266.09;5014154;28;20049;-79
2022/09/01 05:03:12;;;;;;;11.27;8.35;;;;;;;14.24;94.11;101260.00;5013542;28;20042;-77
2022/09/01 05:05:42;;;;;;;11.85;8.55;;;;;;;14.24;93.60;101265.28;5012277;28;20137;-78
2022/09/01 05:08:13;;;;;;;11.30;8.30;;;;;;;14.25;93.67;101262.47;5013045;28;20129;-78
2022/09/01 05:10:42;;;;;;;15.73;7.57;;;;;;;14.35;93.21;101266.75;5012779;28;20072;-76
2022/09/01 05:13:11;;;;;;;14.05;8.27;;;;;;;14.41;93.18;101274.88;5012878;28;20567;-76
2022/09/01 05:15:45;;;;;;;10.93;8.45;;;;;;;14.49;93.34;101269.59;5012212;28;20497;-78
2022/09/01 05:18:13;;;;;;;14.68;8.25;;;;;;;14.50;92.89;101275.69;5012640;28;20046;-78
2022/09/01 05:20:42;;;;;;;9.05;8.10;;;;;;;14.50;91.90;101267.78;5013584;28;20119;-78
2022/09/01 05:23:12;;;;;;;13.30;8.23;;;;;;;14.55;91.33;101262.84;5012457;28;20053;-78
2022/09/01 05:25:42;;;;;;;10.02;7.60;;;;;;;14.66;91.34;101270.38;5011939;28;20050;-77
2022/09/01 05:28:11;;;;;;;12.10;8.02;;;;;;;14.73;91.81;101266.09;5012001;28;20419;-78
2022/09/01 05:30:38;;;;;;;13.27;7.85;;;;;;;14.80;91.35;101271.50;4993005;28;20062;-77
2022/09/01 05:33:09;;;;;;;12.32;8.35;;;;;;;14.88;91.28;101274.13;4998233;28;20093;-79
2022/09/01 05:35:37;;;;;;;9.50;7.60;;;;;;;14.99;90.83;101276.41;4995621;28;20054;-77
2022/09/01 05:38:07;;;;;;;19.98;13.27;;;;;;;15.09;90.73;101270.97;4993146;28;20054;-78
2022/09/01 05:40:36;;;;;;;13.70;8.95;;;;;;;15.19;90.11;101277.66;5007939;28;20132;-79
2022/09/01 05:43:03;;;;;;;14.95;8.80;;;;;;;15.30;89.52;101283.56;5012006;28;20077;-79
2022/09/01 05:45:30;;;;;;;9.90;7.63;;;;;;;15.39;89.45;101278.09;5011652;28;20057;-77
2022/09/01 05:47:58;;;;;;;14.43;7.85;;;;;;;15.49;89.16;101280.50;5011700;28;20505;-77
2022/09/01 05:50:27;;;;;;;22.48;7.90;;;;;;;15.57;89.04;101276.06;5012841;28;20049;-79
2022/09/01 05:52:53;;;;;;;15.90;8.82;;;;;;;15.60;88.98;101265.13;5012811;28;20127;-78
2022/09/01 05:55:21;;;;;;;15.57;8.13;;;;;;;15.63;88.42;101278.97;5011632;28;20076;-77
2022/09/01 05:57:48;;;;;;;15.30;8.23;;;;;;;15.74;87.97;101275.94;5014135;28;20148;-79
2022/09/01 06:00:16;;;;;;;11.73;7.68;;;;;;;15.85;87.51;101284.28;5016403;28;20448;-77
2022/09/01 06:02:43;;;;;;;23.65;8.57;;;;;;;15.93;87.09;101280.78;4992579;28;20050;-78
2022/09/01 06:05:12;;;;;;;16.17;8.10;;;;;;;16.11;86.42;101285.75;4992979;28;20498;-78
2022/09/01 06:07:41;;;;;;;9.73;7.90;;;;;;;16.47;85.54;101281.53;4998836;28;20042;-78
2022/09/01 06:10:09;;;;;;;12.27;7.38;;;;;;;17.34;82.94;101276.50;5015877;28;20069;-79
2022/09/01 06:12:40;;;;;;;10.50;7.15;;;;;;;18.14;76.74;101279.00;5015222;28;20594;-79
2022/09/01 06:15:14;;;;;;;8.15;6.68;;;;;;;18.67;73.11;101299.84;5018461;28;20073;-78
2022/09/01 06:17:42;;;;;;;9.80;5.82;;;;;;;19.77;70.66;101281.25;4999900;28;20050;-80
2022/09/01 06:20:09;;;;;;;7.30;5.35;;;;;;;20.68;66.78;101295.66;5000131;28;20065;-81
2022/09/01 06:22:37;;;;;;;8.40;5.50;;;;;;;21.45;63.20;101291.38;5005355;28;20091;-81
2022/09/01 06:25:05;;;;;;;8.18;5.95;;;;;;;21.20;63.25;101304.56;5022165;28;20053;-80
2022/09/01 06:27:33;;;;;;;8.05;5.32;;;;;;;21.80;61.91;101291.81;5017259;28;20054;-78
2022/09/01 06:30:01;;;;;;;8.35;5.20;;;;;;;22.88;58.19;101292.44;5016616;28;20046;-80
2022/09/01 06:32:28;;;;;;;12.70;5.13;;;;;;;22.32;59.79;101292.50;5018055;28;20142;-79
2022/09/01 06:34:56;;;;;;;9.93;5.43;;;;;;;22.58;58.34;101291.47;5024669;28;20061;-81
2022/09/01 06:37:23;;;;;;;7.07;4.97;;;;;;;22.82;57.50;101290.66;5025019;28;20046;-81
2022/09/01 06:39:50;;;;;;;12.50;5.38;;;;;;;23.22;56.78;101298.22;5023760;28;20046;-82
2022/09/01 06:42:18;;;;;;;7.57;5.15;;;;;;;23.77;55.02;101294.47;5027874;28;20150;-83
2022/09/01 06:44:45;;;;;;;7.25;4.95;;;;;;;24.03;54.60;101300.47;5024341;28;20153;-79
2022/09/01 06:47:14;;;;;;;6.82;4.80;;;;;;;22.83;57.26;101306.44;5023157;28;20473;-79
2022/09/01 06:49:40;;;;;;;8.25;4.75;;;;;;;23.30;57.20;101312.09;5023160;28;20057;-80
2022/09/01 06:52:08;;;;;;;9.93;5.65;;;;;;;24.28;55.37;101305.66;5023276;28;20132;-79
2022/09/01 06:54:38;;;;;;;8.57;5.20;;;;;;;25.05;52.42;101309.06;5024173;28;20057;-82
2022/09/01 06:57:07;;;;;;;5.40;4.20;;;;;;;25.25;50.34;101312.16;5026922;28;20053;-81
2022/09/01 06:59:34;;;;;;;6.63;4.13;;;;;;;25.08;50.19;101303.22;5023728;28;20053;-79
2022/09/01 07:02:02;;;;;;;5.50;3.88;;;;;;;24.38;50.79;101304.06;5023394;28;20140;-80
2022/09/01 07:04:30;;;;;;;6.03;3.58;;;;;;;24.03;52.36;101309.31;5031395;28;20133;-82
2022/09/01 07:06:57;;;;;;;10.93;4.20;;;;;;;24.96;50.34;101305.94;5020128;28;20049;-81
2022/09/01 07:09:24;;;;;;;5.85;3.80;;;;;;;24.66;51.57;101308.72;5017432;28;20050;-81
2022/09/01 07:11:51;;;;;;;6.20;4.05;;;;;;;25.03;50.66;101306.63;5012696;28;20050;-80
2022/09/01 07:14:19;;;;;;;5.03;3.90;;;;;;;25.09;50.33;101310.22;5016081;28;20057;-81
2022/09/01 07:16:46;;;;;;;10.32;3.92;;;;;;;24.61;52.13;101308.59;5027976;28;20111;-79
2022/09/01 07:19:13;;;;;;;5.85;4.13;;;;;;;25.35;49.75;101314.25;5022151;28;20050;-80
2022/09/01 07:21:44;;;;;;;6.93;4.10;;;;;;;24.92;50.09;101298.59;5011489;28;20050;-81
2022/09/01 07:24:14;;;;;;;5.80;3.92;;;;;;;25.01;50.75;101298.03;5026297;28;20053;-81
2022/09/01 07:26:41;;;;;;;5.85;3.55;;;;;;;25.31;49.15;101297.03;5026149;28;20079;-81
2022/09/01 07:29:09;;;;;;;5.15;3.38;;;;;;;25.26;48.98;101300.41;5022477;28;20057;-81
2022/09/01 07:31:39;;;;;;;6.20;3.47;;;;;;;25.57;49.65;101295.63;5016654;28;20053;-79
2022/09/01 07:34:11;;;;;;;8.55;3.67;;;;;;;25.18;51.92;101303.44;5015976;28;20060;-81
2022/09/01 07:36:38;;;;;;;7.10;3.55;;;;;;;25.77;51.61;101301.41;5014862;28;20504;-79
2022/09/01 07:39:06;;;;;;;7.30;3.55;;;;;;;26.03;50.59;101295.44;5016089;28;20124;-81
2022/09/01 07:41:33;;;;;;;5.28;3.80;;;;;;;26.33;48.37;101294.34;5012493;28;20057;-80
2022/09/01 07:44:02;;;;;;;6.80;3.47;;;;;;;25.64;48.39;101286.44;5015609;28;20114;-80
2022/09/01 07:46:31;;;;;;;4.10;3.20;;;;;;;25.83;49.01;101289.72;5006235;28;20061;-80
2022/09/01 07:49:00;;;;;;;5.90;3.63;;;;;;;26.18;46.76;101286.03;5003659;28;20074;-79
2022/09/01 07:51:31;;;;;;;3.63;3.20;;;;;;;26.89;46.30;101287.13;5008511;28;20050;-79
2022/09/01 07:54:00;;;;;;;8.38;3.50;;;;;;;26.86;46.33;101287.63;5017523;28;20054;-78
2022/09/01 07:56:30;;;;;;;4.05;3.15;;;;;;;26.97;45.18;101284.81;5015878;28;20045;-79
2022/09/01 07:58:58;;;;;;;5.95;3.00;;;;;;;24.98;47.51;101281.63;5017472;28;20100;-83
2022/09/01 08:01:27;;;;;;;5.03;3.28;;;;;;;26.10;47.04;101280.00;5015973;28;20060;-80
2022/09/01 08:03:58;;;;;;;6.15;3.22;;;;;;;25.99;47.42;101286.28;5016967;28;20054;-81
2022/09/01 08:06:27;;;;;;;5.20;3.20;;;;;;;26.12;46.89;101288.63;5012236;28;20049;-78
2022/09/01 08:08:55;;;;;;;4.07;3.20;;;;;;;26.80;45.70;101285.91;5013079;28;20050;-78
2022/09/01 08:11:27;;;;;;;5.28;3.15;;;;;;;27.14;46.72;101287.47;5013237;28;20104;-80
2022/09/01 08:13:57;;;;;;;5.70;2.90;;;;;;;27.28;45.87;101279.84;5012044;28;20049;-81
2022/09/01 08:16:25;;;;;;;5.35;3.10;;;;;;;25.78;47.03;101286.97;5013986;28;20125;-82
2022/09/01 08:18:51;;;;;;;8.77;3.50;;;;;;;26.16;46.91;101282.78;5016803;28;20054;-81
2022/09/01 08:21:22;;;;;;;6.78;3.35;;;;;;;26.42;45.70;101285.66;5036431;22;20053;-77
2022/09/01 08:23:49;;;;;;;7.90;3.25;;;;;;;26.75;45.83;101284.78;5026341;28;20062;-78
2022/09/01 08:26:18;;;;;;;10.13;3.35;;;;;;;27.02;46.14;101282.19;5034197;28;20072;-80
2022/09/01 08:28:45;;;;;;;4.80;3.72;;;;;;;27.48;45.69;101288.13;5006555;28;20413;-80
2022/09/01 08:31:16;;;;;;;6.57;3.40;;;;;;;27.42;45.04;101284.56;5014020;28;20088;-79
2022/09/01 08:33:46;;;;;;;6.43;3.17;;;;;;;28.00;45.07;101284.88;4987377;28;20043;-79
2022/09/01 08:36:14;;;;;;;3.58;3.17;;;;;;;25.99;45.94;101293.50;4985250;28;20114;-79
2022/09/01 08:38:41;;;;;;;8.98;3.42;;;;;;;26.24;46.79;101283.19;4994267;28;20055;-80
2022/09/01 08:41:17;;;;;;;5.75;3.47;;;;;;;25.96;46.93;101291.31;5000521;28;20121;-80
2022/09/01 08:43:55;;;;;;;4.43;3.30;;;;;;;25.83;45.82;101288.91;5005002;28;20042;-79
2022/09/01 08:46:27;;;;;;;6.63;3.15;;;;;;;25.83;46.10;101286.25;5009289;28;20045;-79
2022/09/01 08:48:56;;;;;;;6.43;3.55;;;;;;;25.78;46.80;101284.28;5023019;28;20057;-79
2022/09/01 08:51:30;;;;;;;6.82;3.20;;;;;;;25.64;45.71;101270.34;4990159;28;20050;-80
2022/09/01 08:54:21;;;;;;;7.22;3.22;;;;;;;25.65;45.27;101271.16;5005751;28;20058;-79
2022/09/01 08:56:52;;;;;;;5.65;3.42;;;;;;;25.63;46.19;101275.91;5005467;28;20074;-79
2022/09/01 08:59:20;;;;;;;8.60;3.85;;;;;;;26.50;44.34;101268.31;5009848;28;20054;-79
2022/09/01 09:01:55;;;;;;;6.75;3.55;;;;;;;25.98;45.44;101265.06;5001604;28;20113;-79
2022/09/01 09:04:37;;;;;;;7.10;3.20;;;;;;;26.35;45.96;101258.19;5006916;28;20047;-80
2022/09/01 09:07:10;;;;;;;5.28;3.13;;;;;;;26.03;46.00;101263.25;5005789;28;20054;-80
2022/09/01 09:09:44;;;;;;;7.07;3.63;;;;;;;26.82;45.23;101265.81;4994102;28;20089;-79
2022/09/01 09:12:28;;;;;;;4.72;3.35;;;;;;;27.17;44.01;101262.78;4996470;28;20492;-81
2022/09/01 09:15:09;;;;;;;11.80;3.33;;;;;;;26.72;43.72;101257.63;4993225;28;20106;-79
2022/09/01 09:17:43;;;;;;;5.05;3.20;;;;;;;25.81;44.72;101259.66;4989460;28;20049;-78
2022/09/01 09:20:10;;;;;;;8.60;3.20;;;;;;;25.95;44.43;101257.50;4990907;28;20466;-79
2022/09/01 09:22:37;;;;;;;5.28;3.13;;;;;;;25.82;44.41;101255.13;4987311;28;20057;-79
2022/09/01 09:25:08;;;;;;;7.18;3.40;;;;;;;26.46;46.25;101255.66;4982938;28;20077;-78
2022/09/01 09:27:37;;;;;;;4.75;2.95;;;;;;;26.61;45.14;101253.16;4999112;28;20082;-79
2022/09/01 09:30:07;;;;;;;3.97;3.20;;;;;;;26.86;45.41;101250.03;4997745;28;20081;-79
2022/09/01 09:32:48;;;;;;;5.95;2.90;;;;;;;27.04;45.26;101244.34;4990535;28;20053;-78
2022/09/01 09:35:22;;;;;;;7.45;3.38;;;;;;;26.59;43.44;101241.84;4995727;28;20065;-79
2022/09/01 09:37:49;;;;;;;8.38;3.25;;;;;;;25.29;44.95;101246.34;4987850;28;20055;-79
2022/09/01 09:40:21;;;;;;;3.30;2.95;;;;;;;24.91;45.26;101238.06;4991760;28;20117;-79
2022/09/01 09:43:06;;;;;;;5.20;3.08;;;;;;;24.97;46.80;101246.00;4991904;28;20100;-81
2022/09/01 09:45:36;;;;;;;4.80;3.42;;;;;;;26.00;46.67;101230.75;4989168;28;20050;-78
2022/09/01 09:48:09;;;;;;;9.43;3.10;;;;;;;25.95;44.52;101228.00;4995096;28;20098;-79
2022/09/01 09:50:38;;;;;;;5.88;3.28;;;;;;;26.12;44.32;101224.25;5000474;28;20057;-79
2022/09/01 09:53:14;;;;;;;6.50;3.03;;;;;;;25.26;45.33;101230.75;5001188;28;20133;-79
2022/09/01 09:55:54;;;;;;;3.10;2.83;;;;;;;24.74;44.83;101229.94;5001372;28;20056;-79
2022/09/01 09:58:25;;;;;;;7.35;2.85;;;;;;;24.94;44.94;101226.88;4997807;28;20050;-80
2022/09/01 10:01:15;;;;;;;8.40;3.60;;;;;;;24.78;44.35;101228.41;5001095;28;20402;-81
2022/09/01 10:03:49;;;;;;;4.05;3.30;;;;;;;24.92;43.91;101221.75;4987236;28;20042;-79
2022/09/01 10:06:31;;;;;;;6.45;3.28;;;;;;;25.04;43.85;101221.78;5002171;28;20051;-80
2022/09/01 10:08:59;;;;;;;4.53;3.30;;;;;;;24.61;44.50;101212.25;4999351;28;20117;-80
2022/09/01 10:11:29;;;;;;;4.88;3.03;;;;;;;24.66;43.66;101214.22;4997158;28;20472;-78
2022/09/01 10:13:56;;;;;;;3.88;2.78;;;;;;;24.92;43.97;101216.41;4993417;28;20073;-79
2022/09/01 10:16:29;;;;;;;4.07;2.83;;;;;;;25.62;44.36;101201.94;4997646;28;20084;-79
2022/09/01 10:18:59;;;;;;;;;;;;;;;26.26;43.67;101210.50;5002144;28;20087;-80
2022/09/01 10:21:30;;;;;;;3.85;3.00;;;;;;;26.17;42.92;101194.00;4998689;28;21019;-79
2022/09/01 10:23:59;;;;;;;5.05;2.75;;;;;;;25.87;42.18;101198.91;4995280;28;20421;-79
2022/09/01 10:26:32;;;;;;;3.72;2.90;;;;;;;25.96;43.33;101194.78;5002546;28;20043;-77
2022/09/01 10:29:07;;;;;;;3.70;2.75;;;;;;;26.32;43.92;101201.50;4990262;28;20436;-79
2022/09/01 10:31:35;;;;;;;3.35;2.90;;;;;;;26.68;42.37;101194.75;4990235;28;20086;-79
2022/09/01 10:34:06;;;;;;;6.47;2.92;;;;;;;26.65;42.85;101179.13;4992291;28;20047;-80
2022/09/01 10:36:36;;;;;;;7.32;2.78;;;;;;;25.62;42.78;101188.53;4994817;28;20047;-79
2022/09/01 10:39:03;;;;;;;2.75;2.47;;;;;;;25.63;42.35;101179.44;4994967;28;20054;-78
2022/09/01 10:41:50;;;;;;;4.97;3.28;;;;;;;25.38;41.34;101202.06;4990616;28;20086;-79
2022/09/01 10:44:25;;;;;;;4.60;2.88;;;;;;;25.64;41.80;101184.59;4991728;28;20042;-78
2022/09/01 10:46:52;;;;;;;4.90;3.03;;;;;;;25.80;41.18;101185.66;4989076;28;20046;-79
2022/09/01 10:49:59;;;;;;;4.78;3.08;;;;;;;25.15;42.03;101186.09;5001421;28;20164;-79
2022/09/01 10:52:54;;;;;;;3.03;2.72;;;;;;;25.25;42.70;101186.28;4996188;28;20065;-79
2022/09/01 10:55:28;;;;;;;5.22;2.88;;;;;;;25.77;41.26;101178.09;5003277;28;20046;-79
2022/09/01 10:58:07;;;;;;;3.55;2.65;;;;;;;25.61;41.80;101177.00;5004590;28;20050;-78
2022/09/01 11:00:51;;;;;;;3.38;2.67;;;;;;;25.51;41.84;101176.03;5004044;28;20078;-79
2022/09/01 11:03:50;;;;;;;7.25;2.80;;;;;;;25.34;41.13;101179.50;5003185;28;20046;-79
2022/09/01 11:06:57;;;;;;;4.90;2.80;;;;;;;25.41;41.69;101172.13;4998536;28;20536;-78
2022/09/01 11:09:30;;;;;;;4.40;2.92;;;;;;;25.62;41.67;101165.22;4978787;28;20072;-79
2022/09/01 11:12:38;;;;;;;3.38;2.85;;;;;;;25.14;42.18;101181.78;4972049;28;20059;-79
2022/09/01 11:15:26;;;;;;;5.43;3.25;;;;;;;25.11;42.16;101182.25;4991891;28;20050;-78
2022/09/01 11:17:58;;;;;;;3.60;3.00;;;;;;;25.27;42.22;101173.47;4982810;28;20855;-78
2022/09/01 11:20:28;;;;;;;6.60;3.20;;;;;;;25.51;41.51;101168.00;4994422;28;20050;-80
2022/09/01 11:23:02;;;;;;;3.58;3.10;;;;;;;24.88;42.34;101158.22;5011183;28;20477;-80
2022/09/01 11:25:40;;;;;;;6.22;3.05;;;;;;;25.01;42.90;101166.03;5005383;28;20047;-80
2022/09/01 11:28:43;;;;;;;4.45;3.15;;;;;;;25.58;43.14;101164.09;5002395;28;20112;-78
2022/09/01 11:31:25;;;;;;;4.38;3.03;;;;;;;25.94;42.26;101170.88;4998876;28;20129;-79
2022/09/01 11:34:13;;;;;;;;;;;;;;;25.50;42.56;101158.34;4996600;28;20104;-78
2022/09/01 11:36:51;;;;;;;6.05;2.85;;;;;;;25.77;41.49;101157.47;4999838;28;19967;-79
2022/09/01 11:39:30;;;;;;;3.25;2.95;;;;;;;25.69;42.51;101157.06;4996645;28;20058;-79
2022/09/01 11:42:01;;;;;;;4.47;3.42;;;;;;;25.00;42.83;101161.72;4998051;28;20082;-80
2022/09/01 11:44:32;;;;;;;4.38;3.45;;;;;;;24.92;43.24;101170.09;4995675;28;20489;-79